Time;durP1;ratioP1;P1;durP2;ratioP2;P2;SDS_P1;SDS_P2;PMS_P1;PMS_P2;Temp;Humidity;BMP_temperature;BMP_pressure;BME280_temperature;BME280_humidity;BME280_pressure;Samples;Min_cycle;Max_cycle;Signal;HPM_P1;HPM_P2
2023/02/20 00:01:29;;;;;;;15.40;2.80;;;;;;;0.43;74.24;101185.66;110857;1214;108068;-60
2023/02/20 00:03:55;;;;;;;13.40;2.80;;;;;;;0.43;74.40;101191.46;110785;1207;139256;-60
2023/02/20 00:06:20;;;;;;;13.00;3.10;;;;;;;0.47;74.50;101191.48;110983;1212;97664;-60
2023/02/20 00:08:45;;;;;;;11.50;3.80;;;;;;;0.48;74.46;101191.31;111000;1208;97686;-59
2023/02/20 00:11:11;;;;;;;14.70;3.90;;;;;;;0.49;74.61;101189.56;110916;1206;138986;-60
2023/02/20 00:13:36;;;;;;;12.40;3.00;;;;;;;0.49;74.54;101190.44;111171;1211;97629;-60
2023/02/20 00:16:02;;;;;;;14.10;3.80;;;;;;;0.51;74.62;101186.58;110863;1208;139861;-60
2023/02/20 00:18:27;;;;;;;10.10;2.60;;;;;;;0.50;74.70;101194.67;110940;1212;97676;-59
2023/02/20 00:20:52;;;;;;;11.70;3.40;;;;;;;0.52;74.75;101193.27;110961;1212;97814;-59
2023/02/20 00:23:18;;;;;;;12.50;3.30;;;;;;;0.54;74.80;101195.58;111009;1206;138706;-59
2023/02/20 00:25:44;;;;;;;12.50;3.10;;;;;;;0.55;74.73;101192.24;111317;1206;98280;-59
2023/02/20 00:28:09;;;;;;;13.80;3.50;;;;;;;0.55;74.83;101195.05;110979;1206;139881;-58
2023/02/20 00:30:34;;;;;;;9.80;3.00;;;;;;;0.55;74.88;101189.95;110983;1206;97606;-60
2023/02/20 00:32:59;;;;;;;11.80;3.20;;;;;;;0.56;74.98;101187.49;111041;1209;97661;-60
2023/02/20 00:35:26;;;;;;;14.70;3.70;;;;;;;0.56;75.00;101184.51;110927;1206;139352;-59
2023/02/20 00:37:53;;;;;;;10.40;3.20;;;;;;;0.57;75.06;101183.80;111022;1212;97665;-60
2023/02/20 00:40:21;;;;;;;12.40;3.00;;;;;;;0.59;75.04;101181.55;111077;1206;140343;-59
2023/02/20 00:42:46;;;;;;;14.80;3.70;;;;;;;0.60;75.16;101175.56;111003;1209;97724;-60
2023/02/20 00:45:14;;;;;;;12.70;4.10;;;;;;;0.60;75.05;101179.27;111123;1206;97923;-59
2023/02/20 00:47:40;;;;;;;12.30;3.70;;;;;;;0.61;75.28;101178.04;111022;1211;139248;-60
2023/02/20 00:50:07;;;;;;;10.70;3.10;;;;;;;0.62;75.46;101174.34;110971;1225;97674;-59
2023/02/20 00:52:32;;;;;;;10.00;3.50;;;;;;;0.64;75.44;101163.80;110845;1210;140358;-60
2023/02/20 00:54:57;;;;;;;8.30;3.10;;;;;;;0.67;75.64;101161.00;111064;1211;97664;-60
2023/02/20 00:57:23;;;;;;;11.10;2.60;;;;;;;0.66;75.58;101158.89;110883;1210;139782;-59
2023/02/20 00:59:48;;;;;;;6.60;2.70;;;;;;;0.65;75.68;101153.26;111103;1209;96440;-61
2023/02/20 01:02:14;;;;;;;13.20;3.30;;;;;;;0.65;75.76;101139.72;111008;1209;97805;-60
2023/02/20 01:04:39;;;;;;;6.50;2.30;;;;;;;0.64;75.62;101136.19;110987;1210;139440;-59
2023/02/20 01:07:04;;;;;;;11.90;3.10;;;;;;;0.62;75.85;101130.02;111124;1211;97697;-60
2023/02/20 01:09:30;;;;;;;17.20;3.60;;;;;;;0.60;75.79;101130.89;110916;1206;139277;-59
2023/02/20 01:11:55;;;;;;;6.90;2.30;;;;;;;0.57;75.83;101131.95;110945;1227;97703;-59
2023/02/20 01:14:21;;;;;;;11.00;2.20;;;;;;;0.55;76.02;101140.71;111005;1212;97689;-61
2023/02/20 01:16:50;;;;;;;6.80;2.00;;;;;;;0.55;76.05;101147.75;110781;1206;138270;-61
2023/02/20 01:19:15;;;;;;;8.50;2.30;;;;;;;0.54;76.01;101144.41;110853;1211;97711;-61
2023/02/20 01:21:41;;;;;;;6.80;2.40;;;;;;;0.53;76.08;101141.23;110861;1206;140565;-60
2023/02/20 01:24:07;;;;;;;12.80;2.60;;;;;;;0.51;76.13;101138.41;111036;1209;97650;-59
2023/02/20 01:26:32;;;;;;;10.50;2.60;;;;;;;0.49;76.39;101137.70;111018;1206;97581;-59
2023/02/20 01:28:57;;;;;;;8.50;2.90;;;;;;;0.47;76.29;101128.02;110955;1209;139840;-61
2023/02/20 01:31:23;;;;;;;8.60;2.40;;;;;;;0.43;76.17;101120.96;110978;1206;98501;-60
2023/02/20 01:33:49;;;;;;;5.80;2.20;;;;;;;0.41;76.43;101114.62;110932;1209;138910;-60
2023/02/20 01:36:14;;;;;;;5.90;2.00;;;;;;;0.40;76.39;101114.09;111028;1206;97552;-60
2023/02/20 01:38:41;;;;;;;7.60;2.10;;;;;;;0.38;76.60;101111.61;111034;1209;97681;-60
2023/02/20 01:41:10;;;;;;;8.30;3.10;;;;;;;0.37;76.66;101108.09;111454;1206;138128;-60
2023/02/20 01:43:35;;;;;;;9.80;2.10;;;;;;;0.36;76.60;101107.56;111119;1221;107849;-60
2023/02/20 01:46:26;;;;;;;11.80;4.20;;;;;;;0.33;76.91;101107.90;110905;1209;138293;-60
2023/02/20 01:49:01;;;;;;;9.10;2.20;;;;;;;0.33;76.83;101103.15;110993;1209;97475;-60
2023/02/20 01:51:28;;;;;;;12.60;3.00;;;;;;;0.30;76.82;101099.63;110914;1206;139227;-60
2023/02/20 01:53:53;;;;;;;12.90;2.60;;;;;;;0.29;76.97;101101.55;111027;1206;99348;-62
2023/02/20 01:56:19;;;;;;;17.10;2.80;;;;;;;0.29;77.10;101099.61;111068;1206;98007;-59
2023/02/20 01:58:47;;;;;;;8.30;2.70;;;;;;;0.28;76.99;101103.30;110894;1206;139507;-60
2023/02/20 02:01:12;;;;;;;6.40;2.00;;;;;;;0.27;77.17;101104.52;111111;1206;109999;-60
2023/02/20 02:03:43;;;;;;;10.00;2.70;;;;;;;0.28;77.32;101102.59;110880;1209;139778;-60
2023/02/20 02:06:12;;;;;;;9.80;3.10;;;;;;;0.30;77.37;101090.30;110980;1206;107417;-60
2023/02/20 02:08:38;;;;;;;10.30;2.90;;;;;;;0.32;77.36;101098.23;111026;1206;97587;-60
2023/02/20 02:11:10;;;;;;;9.00;2.40;;;;;;;0.35;77.42;101106.67;111021;1209;138246;-60
2023/02/20 02:13:36;;;;;;;;;;;;;;;0.37;77.64;101106.16;111031;1206;111541;-60
2023/02/20 02:16:07;;;;;;;7.10;2.60;;;;;;;0.39;77.88;101090.00;110941;1206;125581;-61
2023/02/20 02:18:42;;;;;;;;;;;;;;;0.41;77.88;101076.65;111071;1206;108060;-60
2023/02/20 02:21:16;;;;;;;8.50;2.20;;;;;;;0.42;77.95;101063.29;110996;1206;97594;-59
2023/02/20 02:24:23;;;;;;;10.10;2.80;;;;;;;0.42;78.09;101051.34;110755;1212;139042;-60
2023/02/20 02:27:22;;;;;;;9.50;2.60;;;;;;;0.43;78.03;101038.33;110959;1208;111450;-60
2023/02/20 02:30:01;;;;;;;8.20;3.00;;;;;;;0.44;78.14;101031.13;110963;1212;99989;-60
2023/02/20 02:32:32;;;;;;;12.90;2.90;;;;;;;0.44;78.24;101027.44;110945;1208;107251;-60
2023/02/20 02:35:27;;;;;;;8.40;2.40;;;;;;;0.45;78.29;101027.27;110733;1208;139580;-60
2023/02/20 02:38:19;;;;;;;7.40;1.90;;;;;;;0.48;78.45;101026.23;110985;1207;97342;-61
2023/02/20 02:41:05;;;;;;;7.50;2.80;;;;;;;0.49;78.62;101030.80;110818;1206;138216;-60
2023/02/20 02:43:38;;;;;;;8.00;2.50;;;;;;;0.51;78.72;101030.63;110915;1208;98478;-60
2023/02/20 02:46:14;;;;;;;8.00;3.00;;;;;;;0.53;78.74;101031.69;110876;1212;139173;-60
2023/02/20 02:48:48;;;;;;;8.70;2.40;;;;;;;0.54;78.85;101040.48;110988;1212;97723;-59
2023/02/20 02:51:22;;;;;;;12.80;2.90;;;;;;;0.57;78.90;101041.03;110943;1209;97757;-60
2023/02/20 02:54:13;;;;;;;14.70;2.90;;;;;;;0.60;79.08;101034.02;111041;1223;110924;-60
2023/02/20 02:56:41;;;;;;;6.60;2.20;;;;;;;0.64;79.18;101029.27;110897;1212;100166;-60
2023/02/20 02:59:09;;;;;;;6.00;2.30;;;;;;;0.68;79.28;101029.45;110926;1208;139839;-60
2023/02/20 03:01:40;;;;;;;13.10;2.20;;;;;;;0.71;79.32;101026.30;111004;1208;97622;-61
2023/02/20 03:04:10;;;;;;;13.80;3.00;;;;;;;0.73;79.33;101029.29;110927;1208;138619;-60
2023/02/20 03:06:41;;;;;;;9.40;2.50;;;;;;;0.77;79.53;101018.58;110881;1212;109834;-60
2023/02/20 03:09:11;;;;;;;9.60;3.00;;;;;;;0.79;79.53;101016.30;111070;1212;100194;-60
2023/02/20 03:11:39;;;;;;;7.80;2.70;;;;;;;0.81;79.64;101016.13;110742;1212;138282;-60
2023/02/20 03:16:57;;;;;;;6.70;2.40;;;;;;;0.85;79.75;101005.05;110853;1208;138081;-59
2023/02/20 03:19:36;;;;;;;10.20;3.20;;;;;;;0.86;79.87;101002.41;110905;1208;111672;-60
2023/02/20 03:22:09;;;;;;;12.70;2.50;;;;;;;0.86;79.92;100993.09;110921;1206;140433;-60
2023/02/20 03:24:53;;;;;;;12.70;3.00;;;;;;;0.87;80.08;100984.13;111025;1206;107371;-60
2023/02/20 03:27:38;;;;;;;4.60;1.80;;;;;;;0.88;80.05;100985.02;111000;1209;97710;-60
2023/02/20 03:30:35;;;;;;;10.80;2.30;;;;;;;0.89;80.14;100988.00;111106;1209;97687;-60
2023/02/20 03:44:19;;;;;;;8.50;2.50;;;;;;;0.91;80.66;100987.12;111013;1210;97723;-60
2023/02/20 03:46:47;;;;;;;11.30;2.80;;;;;;;0.91;80.57;100986.94;110745;1212;138828;-60
2023/02/20 03:49:18;;;;;;;10.30;2.40;;;;;;;0.90;80.78;100983.95;111108;1209;100266;-60
2023/02/20 03:51:56;;;;;;;9.60;2.40;;;;;;;0.91;80.87;100983.07;110979;1206;139423;-60
2023/02/20 03:54:22;;;;;;;14.90;2.80;;;;;;;0.90;80.82;100980.25;111041;1211;97639;-60
2023/02/20 03:56:54;;;;;;;12.40;2.90;;;;;;;0.90;81.04;100979.73;111092;1205;97660;-61
2023/02/20 03:59:24;;;;;;;6.70;2.20;;;;;;;0.90;80.99;100979.20;111047;1209;139276;-60
2023/02/20 04:01:56;;;;;;;10.60;2.60;;;;;;;0.90;80.89;100977.97;111042;1206;101035;-61
2023/02/20 04:04:48;;;;;;;11.40;2.90;;;;;;;0.90;81.03;100977.62;110906;1211;139433;-60
2023/02/20 04:07:54;;;;;;;7.20;2.40;;;;;;;0.90;81.06;100968.12;110987;1211;97703;-61
2023/02/20 04:10:24;;;;;;;8.60;3.20;;;;;;;0.89;81.32;100964.42;110869;1206;138753;-60
2023/02/20 04:12:51;;;;;;;8.60;2.60;;;;;;;0.89;81.43;100966.53;111152;1206;111224;-59
2023/02/20 04:15:19;;;;;;;6.20;3.10;;;;;;;0.88;81.33;100964.77;111038;1210;97660;-60
2023/02/20 04:17:50;;;;;;;7.30;2.70;;;;;;;0.87;81.53;100965.47;110956;1218;139805;-60
2023/02/20 04:20:16;;;;;;;10.80;2.70;;;;;;;0.88;81.48;100965.48;111073;1211;97669;-60
2023/02/20 04:22:45;;;;;;;11.00;3.10;;;;;;;0.88;81.57;100969.34;111215;1210;139853;-60
2023/02/20 04:25:26;;;;;;;12.80;2.90;;;;;;;0.87;81.78;100967.77;111033;1212;111503;-60
2023/02/20 04:27:52;;;;;;;8.90;3.60;;;;;;;0.88;81.82;100959.85;110917;1212;138651;-60
2023/02/20 04:30:17;;;;;;;12.00;3.80;;;;;;;0.88;81.74;100958.78;111114;1206;97580;-60
2023/02/20 04:32:43;;;;;;;11.20;4.10;;;;;;;0.88;81.88;100957.56;111153;1209;97562;-59
2023/02/20 04:35:16;;;;;;;16.20;4.40;;;;;;;0.87;81.90;100948.94;110920;1209;142174;-60
2023/02/20 04:37:42;;;;;;;13.90;3.80;;;;;;;0.88;82.06;100944.19;111038;1206;99756;-60
2023/02/20 04:40:09;;;;;;;18.10;4.50;;;;;;;0.88;82.09;100945.23;110969;1211;138516;-60
2023/02/20 04:42:34;;;;;;;13.10;4.90;;;;;;;0.88;82.14;100940.84;111013;1211;97703;-60
2023/02/20 04:44:59;;;;;;;9.90;4.10;;;;;;;0.89;82.13;100944.89;111104;1206;97716;-59
2023/02/20 04:47:25;;;;;;;10.10;3.80;;;;;;;0.90;82.48;100946.13;110928;1212;139784;-60
2023/02/20 04:49:50;;;;;;;9.00;3.60;;;;;;;0.91;82.33;100940.31;111180;1209;97815;-63
2023/02/20 04:52:15;;;;;;;11.70;3.90;;;;;;;0.92;82.45;100939.09;110959;1209;138118;-63
2023/02/20 04:54:40;;;;;;;12.60;4.40;;;;;;;0.93;82.51;100926.59;111040;1206;97568;-62
2023/02/20 04:57:06;;;;;;;11.00;4.20;;;;;;;0.94;82.40;100924.48;110938;1210;106773;-63
2023/02/20 04:59:31;;;;;;;17.20;5.00;;;;;;;0.95;82.57;100913.40;110759;1206;139590;-63
2023/02/20 05:01:59;;;;;;;14.90;4.60;;;;;;;0.97;82.58;100908.83;111035;1210;97713;-63
2023/02/20 05:04:25;;;;;;;15.20;3.90;;;;;;;0.98;82.54;100899.85;110864;1212;140388;-63
2023/02/20 05:06:52;;;;;;;15.40;4.10;;;;;;;0.98;82.77;100887.36;111007;1206;97666;-63
2023/02/20 05:09:19;;;;;;;14.00;4.60;;;;;;;1.00;82.64;100885.08;110975;1211;97680;-65
2023/02/20 05:11:44;;;;;;;9.20;3.60;;;;;;;1.02;82.75;100881.55;110978;1210;138415;-67
2023/02/20 05:14:10;;;;;;;13.00;4.30;;;;;;;1.02;82.71;100878.04;110978;1212;99361;-63
2023/02/20 05:16:39;;;;;;;10.80;3.70;;;;;;;1.02;82.77;100874.16;110796;1209;138734;-63
2023/02/20 05:19:06;;;;;;;13.40;4.80;;;;;;;1.01;82.91;100871.52;111112;1210;97604;-64
2023/02/20 05:24:16;;;;;;;10.40;4.20;;;;;;;1.01;82.99;100873.63;110992;1222;112440;-63
2023/02/20 05:26:42;;;;;;;13.50;4.30;;;;;;;1.02;83.09;100864.30;111012;1206;98072;-63
2023/02/20 05:29:08;;;;;;;12.50;4.30;;;;;;;1.02;83.04;100861.67;111118;1206;140063;-63
2023/02/20 05:31:34;;;;;;;9.90;3.80;;;;;;;1.04;83.15;100852.34;110998;1209;98871;-63
2023/02/20 05:34:00;;;;;;;10.90;4.10;;;;;;;1.05;83.18;100842.14;111065;1206;138729;-63
2023/02/20 05:36:25;;;;;;;11.90;3.90;;;;;;;1.06;83.19;100839.31;111093;1209;97710;-63
2023/02/20 05:38:51;;;;;;;12.30;3.90;;;;;;;1.07;83.34;100835.80;111018;1206;97597;-63
2023/02/20 05:41:17;;;;;;;16.50;4.30;;;;;;;1.08;83.25;100838.44;110923;1209;139954;-63
2023/02/20 05:43:43;;;;;;;9.50;4.30;;;;;;;1.10;83.43;100836.31;111167;1206;97572;-63
2023/02/20 05:46:08;;;;;;;11.40;4.30;;;;;;;1.12;83.46;100837.02;110947;1209;138184;-63
2023/02/20 05:48:34;;;;;;;12.20;4.60;;;;;;;1.14;83.57;100837.02;110996;1211;97702;-64
2023/02/20 05:50:59;;;;;;;16.20;5.50;;;;;;;1.16;83.77;100831.38;111078;1211;98027;-63
2023/02/20 05:53:29;;;;;;;19.50;5.90;;;;;;;1.18;83.82;100823.11;110770;1207;140144;-63
2023/02/20 05:55:55;;;;;;;16.00;6.40;;;;;;;1.19;83.77;100816.23;110907;1206;108181;-63
2023/02/20 05:58:20;;;;;;;16.00;5.70;;;;;;;1.20;83.76;100816.23;110848;1209;141450;-63
2023/02/20 06:00:45;;;;;;;15.00;5.80;;;;;;;1.22;83.93;100812.01;110986;1206;96890;-62
2023/02/20 06:03:13;;;;;;;14.80;6.00;;;;;;;1.23;84.21;100810.59;111018;1210;99323;-63
2023/02/20 06:05:38;;;;;;;19.60;6.10;;;;;;;1.25;84.06;100809.35;110844;1209;138394;-63
2023/02/20 06:08:03;;;;;;;18.60;5.90;;;;;;;1.27;84.31;100796.49;111003;1210;97719;-63
2023/02/20 06:10:29;;;;;;;26.20;7.10;;;;;;;1.29;84.30;100796.67;110780;1211;139952;-63
2023/02/20 06:12:54;;;;;;;19.00;6.60;;;;;;;1.32;84.38;100794.90;110907;1213;101071;-63
2023/02/20 06:15:19;;;;;;;20.90;6.80;;;;;;;1.35;84.51;100792.06;110924;1212;98258;-63
2023/02/20 06:17:44;;;;;;;20.70;6.70;;;;;;;1.37;84.57;100790.84;110793;1213;140036;-63
2023/02/20 06:20:10;;;;;;;19.30;6.30;;;;;;;1.39;84.76;100790.83;111038;1212;97588;-62
2023/02/20 06:22:35;;;;;;;17.10;6.80;;;;;;;1.41;84.78;100792.58;110742;1212;138119;-64
2023/02/20 06:25:00;;;;;;;15.20;7.10;;;;;;;1.43;84.84;100802.77;110944;1213;97601;-64
2023/02/20 06:27:26;;;;;;;23.20;7.50;;;;;;;1.46;84.91;100798.73;110993;1212;97661;-62
2023/02/20 06:29:51;;;;;;;18.30;7.50;;;;;;;1.48;84.86;100790.09;110798;1207;139330;-62
2023/02/20 06:32:16;;;;;;;14.10;5.60;;;;;;;1.50;85.07;100775.98;110929;1212;98072;-62
2023/02/20 06:34:45;;;;;;;18.30;6.10;;;;;;;1.53;84.99;100769.98;110744;1207;138758;-63
2023/02/20 06:37:10;;;;;;;14.00;6.30;;;;;;;1.55;85.13;100762.59;110745;1207;110727;-62
2023/02/20 06:39:36;;;;;;;18.40;6.40;;;;;;;1.56;85.17;100752.37;110719;1211;140736;-62
2023/02/20 06:42:01;;;;;;;14.70;5.40;;;;;;;1.59;85.35;100750.59;110965;1208;96416;-63
2023/02/20 06:44:27;;;;;;;15.30;6.00;;;;;;;1.62;85.52;100746.88;110935;1212;97755;-63
2023/02/20 06:46:52;;;;;;;16.10;6.40;;;;;;;1.65;85.39;100744.39;110921;1206;138207;-63
2023/02/20 06:49:17;;;;;;;16.10;6.70;;;;;;;1.70;85.45;100746.48;110882;1212;108031;-63
2023/02/20 06:51:42;;;;;;;13.50;6.00;;;;;;;1.74;85.44;100748.39;110772;1211;140199;-64
2023/02/20 06:54:11;;;;;;;14.90;5.50;;;;;;;1.76;85.71;100740.98;110983;1207;96452;-63
2023/02/20 06:56:37;;;;;;;13.00;5.70;;;;;;;1.79;85.67;100733.73;110854;1207;100047;-63
2023/02/20 06:59:05;;;;;;;14.00;5.80;;;;;;;1.81;85.79;100731.27;110789;1208;138348;-63
2023/02/20 07:01:38;;;;;;;13.60;6.20;;;;;;;1.83;85.98;100721.02;110845;1207;97705;-63
2023/02/20 07:04:04;;;;;;;13.90;6.00;;;;;;;1.86;85.71;100716.25;110893;1208;139573;-63
2023/02/20 07:06:29;;;;;;;16.90;5.60;;;;;;;1.89;85.90;100716.59;110762;1212;97677;-63
2023/02/20 07:08:54;;;;;;;20.80;7.30;;;;;;;1.92;85.96;100711.98;110833;1210;97455;-63
2023/02/20 07:11:21;;;;;;;19.80;7.00;;;;;;;1.97;85.96;100702.08;110806;1213;139446;-63
2023/02/20 07:13:47;;;;;;;14.00;6.80;;;;;;;2.03;86.19;100700.80;110856;1212;97706;-62
2023/02/20 07:16:13;;;;;;;15.50;6.20;;;;;;;2.08;86.12;100686.66;110744;1208;139781;-63
2023/02/20 07:18:38;;;;;;;15.10;5.60;;;;;;;2.14;86.23;100680.09;110895;1207;108040;-62
2023/02/20 07:21:03;;;;;;;20.00;6.50;;;;;;;2.19;86.11;100673.34;110685;1208;99139;-63
2023/02/20 07:23:29;;;;;;;13.00;6.20;;;;;;;2.24;86.20;100668.02;110860;1211;139734;-63
2023/02/20 07:25:55;;;;;;;16.90;6.00;;;;;;;2.27;86.12;100650.35;110968;1211;97687;-66
2023/02/20 07:28:20;;;;;;;13.20;6.30;;;;;;;2.32;86.49;100650.14;110844;1206;138207;-65
2023/02/20 07:30:49;;;;;;;22.50;7.20;;;;;;;2.36;86.38;100645.33;111139;1209;97649;-63
2023/02/20 07:33:16;;;;;;;20.70;7.00;;;;;;;2.37;86.64;100639.33;111094;1211;111091;-64
2023/02/20 07:35:42;;;;;;;15.50;6.00;;;;;;;2.41;86.74;100634.35;111030;1211;138624;-63
2023/02/20 07:38:07;;;;;;;13.70;5.90;;;;;;;2.43;86.74;100633.10;111043;1206;97600;-64
2023/02/20 07:40:32;;;;;;;17.10;6.50;;;;;;;2.46;86.65;100630.23;110978;1212;139963;-64
2023/02/20 07:42:58;;;;;;;14.80;5.90;;;;;;;2.47;86.78;100618.05;111016;1211;98233;-64
2023/02/20 07:45:24;;;;;;;12.60;5.60;;;;;;;2.50;86.76;100611.66;111051;1211;98882;-63
2023/02/20 07:47:50;;;;;;;12.60;5.90;;;;;;;2.54;86.87;100605.98;111071;1210;138826;-64
2023/02/20 07:50:16;;;;;;;12.80;6.30;;;;;;;2.57;86.75;100606.13;110858;1206;97630;-64
2023/02/20 07:52:41;;;;;;;11.50;6.20;;;;;;;2.60;86.95;100603.61;110843;1208;138216;-63
2023/02/20 07:55:07;;;;;;;13.40;6.40;;;;;;;2.63;86.94;100603.55;110933;1212;107167;-63
2023/02/20 07:57:35;;;;;;;18.00;6.50;;;;;;;2.66;87.05;100593.46;110756;1213;138853;-64
2023/02/20 08:00:01;;;;;;;20.00;7.10;;;;;;;2.69;87.33;100598.02;110977;1208;97719;-63
2023/02/20 08:02:26;;;;;;;15.10;6.70;;;;;;;2.71;87.07;100593.41;110759;1212;98054;-64
2023/02/20 08:04:51;;;;;;;16.70;7.10;;;;;;;2.74;87.32;100591.95;110422;1208;138404;-63
2023/02/20 08:07:17;;;;;;;14.50;6.90;;;;;;;2.76;87.21;100582.77;110739;1213;98731;-63
2023/02/20 08:09:42;;;;;;;19.00;7.10;;;;;;;2.77;87.39;100580.80;110895;1206;139245;-64
2023/02/20 08:12:07;;;;;;;17.40;7.10;;;;;;;2.79;87.62;100585.18;111029;1210;97677;-65
2023/02/20 08:14:33;;;;;;;17.40;7.00;;;;;;;2.80;87.35;100580.05;110975;1209;97594;-62
2023/02/20 08:16:58;;;;;;;19.90;7.80;;;;;;;2.82;87.38;100578.27;110828;1206;139411;-62
2023/02/20 08:19:23;;;;;;;35.00;9.10;;;;;;;2.82;87.71;100568.39;111085;1211;97670;-62
2023/02/20 08:21:48;;;;;;;17.30;8.30;;;;;;;2.83;87.79;100560.25;110387;1206;139134;-62
2023/02/20 08:24:14;;;;;;;17.20;7.40;;;;;;;2.84;87.73;100566.95;110861;1213;97673;-62
2023/02/20 08:26:47;;;;;;;16.70;7.00;;;;;;;2.86;87.88;100574.50;110997;1213;97576;-62
2023/02/20 08:29:13;;;;;;;19.30;8.80;;;;;;;2.88;87.91;100572.36;110697;1223;138954;-61
2023/02/20 08:31:38;;;;;;;17.10;8.60;;;;;;;2.88;88.01;100573.24;110625;1213;97738;-62
2023/02/20 08:34:03;;;;;;;20.70;9.70;;;;;;;2.87;88.08;100567.08;110665;1209;138554;-63
2023/02/20 08:36:29;;;;;;;20.00;8.60;;;;;;;2.88;88.17;100566.19;110628;1213;97640;-64
2023/02/20 08:38:54;;;;;;;24.20;8.10;;;;;;;2.88;88.71;100549.95;110665;1209;99275;-61
2023/02/20 08:41:20;;;;;;;19.40;8.40;;;;;;;2.90;88.61;100534.75;110558;1213;140234;-62
2023/02/20 08:43:48;;;;;;;21.20;8.20;;;;;;;2.93;88.86;100525.18;110677;1208;97598;-64
2023/02/20 08:46:13;;;;;;;24.30;9.30;;;;;;;2.93;88.45;100516.16;110785;1211;139817;-62
2023/02/20 08:48:39;;;;;;;21.40;9.20;;;;;;;2.98;88.76;100507.81;110792;1213;97640;-63
2023/02/20 08:51:05;;;;;;;22.20;8.70;;;;;;;3.03;88.77;100504.73;110787;1211;96594;-62
2023/02/20 08:53:31;;;;;;;26.50;10.10;;;;;;;3.09;88.95;100492.65;110631;1211;138779;-63
2023/02/20 08:55:57;;;;;;;19.20;8.70;;;;;;;3.12;88.99;100497.02;110770;1209;98658;-61
2023/02/20 08:58:23;;;;;;;24.00;8.50;;;;;;;3.14;89.06;100486.73;110616;1210;139374;-61
2023/02/20 09:00:49;;;;;;;21.10;8.60;;;;;;;3.13;89.16;100486.40;110683;1212;96489;-61
2023/02/20 09:03:15;;;;;;;19.90;9.20;;;;;;;3.14;89.15;100482.15;110912;1212;98017;-62
2023/02/20 09:05:41;;;;;;;21.60;9.70;;;;;;;3.15;89.49;100481.43;110550;1211;139892;-61
2023/02/20 09:08:06;;;;;;;19.80;8.80;;;;;;;3.17;89.82;100466.73;112975;1206;107995;-61
2023/02/20 09:10:32;;;;;;;20.50;9.70;;;;;;;3.21;90.08;100457.14;112961;1208;138327;-62
2023/02/20 09:12:57;;;;;;;22.50;9.60;;;;;;;3.25;90.29;100450.89;113126;1208;95898;-62
2023/02/20 09:15:23;;;;;;;18.50;8.90;;;;;;;3.31;90.18;100450.79;112528;1212;97637;-62
2023/02/20 09:17:50;;;;;;;18.80;8.80;;;;;;;3.37;90.35;100446.98;110850;1207;138180;-61
2023/02/20 09:20:19;;;;;;;22.30;9.20;;;;;;;3.47;90.55;100428.62;111026;1210;98152;-61
2023/02/20 09:22:45;;;;;;;19.30;8.90;;;;;;;3.58;90.93;100414.98;110734;1221;139137;-61
2023/02/20 09:25:11;;;;;;;29.50;9.80;;;;;;;3.69;91.57;100415.67;110982;1211;97754;-61
2023/02/20 09:27:36;;;;;;;15.90;7.80;;;;;;;3.81;91.38;100408.36;110768;1212;140164;-62
2023/02/20 09:30:03;;;;;;;17.10;8.70;;;;;;;3.91;91.56;100411.88;110752;1211;97692;-61
2023/02/20 09:32:28;;;;;;;20.00;8.60;;;;;;;4.01;91.93;100400.00;110640;1212;97722;-62
2023/02/20 09:34:53;;;;;;;14.90;8.10;;;;;;;4.08;92.24;100383.23;110770;1220;140450;-61
2023/02/20 09:37:18;;;;;;;16.50;7.80;;;;;;;4.14;92.28;100342.96;110692;1212;97433;-62
2023/02/20 09:39:44;;;;;;;18.50;8.50;;;;;;;4.20;92.84;100353.63;110734;1212;139070;-61
2023/02/20 09:42:40;;;;;;;18.20;9.30;;;;;;;4.25;92.72;100349.27;110582;1212;97808;-62
2023/02/20 09:45:16;;;;;;;17.40;7.50;;;;;;;4.28;92.81;100331.89;110591;1208;100106;-62
2023/02/20 09:47:53;;;;;;;18.40;9.30;;;;;;;4.34;93.00;100338.45;110482;1209;138452;-61
2023/02/20 09:50:46;;;;;;;16.40;8.40;;;;;;;4.41;93.01;100324.33;110751;1219;98004;-61
2023/02/20 09:53:23;;;;;;;18.40;9.50;;;;;;;4.48;93.10;100308.77;110796;1222;139886;-63
2023/02/20 09:55:50;;;;;;;17.00;8.40;;;;;;;4.53;93.23;100313.42;110986;1211;111143;-62
2023/02/20 09:58:51;;;;;;;17.70;8.70;;;;;;;4.59;93.66;100311.70;110727;1206;139486;-60
2023/02/20 10:01:19;;;;;;;19.50;10.80;;;;;;;4.66;93.54;100311.68;110821;1212;107864;-61
2023/02/20 10:03:53;;;;;;;15.60;8.10;;;;;;;4.71;93.52;100310.33;110702;1206;139417;-62
2023/02/20 10:06:21;;;;;;;19.70;8.70;;;;;;;4.78;93.57;100320.58;110800;1206;97580;-61
2023/02/20 10:08:48;;;;;;;14.90;8.10;;;;;;;4.85;93.49;100298.99;110740;1221;111844;-61
2023/02/20 10:11:45;;;;;;;19.90;9.20;;;;;;;4.92;93.66;100297.21;110481;1212;140765;-61
2023/02/20 10:14:27;;;;;;;18.80;8.90;;;;;;;4.98;93.56;100284.13;110561;1208;108037;-61
2023/02/20 10:16:56;;;;;;;18.30;9.20;;;;;;;5.07;93.70;100269.90;110471;1211;139168;-62
2023/02/20 10:19:40;;;;;;;15.80;8.90;;;;;;;5.16;93.53;100259.22;110660;1211;97778;-61
2023/02/20 10:22:17;;;;;;;15.80;8.00;;;;;;;5.24;93.50;100248.69;110799;1211;138479;-61
2023/02/20 10:24:55;;;;;;;15.60;8.50;;;;;;;5.32;93.49;100244.39;110921;1211;100306;-61
2023/02/20 10:27:23;;;;;;;15.90;8.50;;;;;;;5.40;93.36;100224.30;110801;1211;108112;-61
2023/02/20 10:29:49;;;;;;;17.70;9.10;;;;;;;5.48;93.19;100212.73;110711;1211;140513;-62
2023/02/20 10:32:24;;;;;;;18.40;8.60;;;;;;;5.54;93.25;100203.52;110822;1212;97726;-63
2023/02/20 10:35:00;;;;;;;19.10;9.00;;;;;;;5.63;93.05;100206.09;110580;1207;140072;-60
2023/02/20 10:37:38;;;;;;;17.30;8.70;;;;;;;5.70;92.83;100194.53;110987;1209;100618;-61
2023/02/20 10:40:17;;;;;;;17.90;8.70;;;;;;;5.75;92.88;100181.95;110828;1209;139269;-61
2023/02/20 10:42:48;;;;;;;14.20;7.50;;;;;;;5.80;92.27;100172.04;110817;1211;97576;-62
2023/02/20 10:45:15;;;;;;;;;;;;;;;5.86;92.40;100170.80;110812;1212;97687;-61
2023/02/20 10:47:51;;;;;;;15.60;9.20;;;;;;;5.93;92.24;100156.61;110789;1223;124558;-61
2023/02/20 10:50:24;;;;;;;17.00;8.10;;;;;;;6.00;92.06;100157.63;110830;1206;100161;-61
2023/02/20 10:52:59;;;;;;;18.40;8.50;;;;;;;6.09;92.00;100174.86;111023;1212;139120;-63
2023/02/20 10:55:33;;;;;;;17.20;7.70;;;;;;;6.18;91.61;100180.26;110923;1211;97629;-61
2023/02/20 10:58:17;;;;;;;15.50;7.80;;;;;;;6.33;91.09;100168.08;110916;1206;140005;-61
2023/02/20 11:00:51;;;;;;;16.10;8.10;;;;;;;6.44;90.03;100155.63;110864;1206;113050;-61
2023/02/20 11:03:26;;;;;;;15.40;7.00;;;;;;;6.53;89.59;100138.98;110968;1206;101205;-62
2023/02/20 11:05:55;;;;;;;14.50;7.10;;;;;;;6.61;89.38;100138.50;110957;1206;139629;-62
2023/02/20 11:08:20;;;;;;;12.40;7.20;;;;;;;6.68;89.32;100136.14;111073;1211;97634;-62
2023/02/20 11:10:56;;;;;;;15.20;6.80;;;;;;;6.74;88.92;100134.83;110770;1212;138351;-63
2023/02/20 11:13:24;;;;;;;17.60;7.10;;;;;;;6.84;88.57;100120.45;111041;1206;111527;-63
2023/02/20 11:15:57;;;;;;;11.90;6.50;;;;;;;6.93;88.51;100112.69;110894;1206;138473;-63
2023/02/20 11:18:28;;;;;;;12.40;7.10;;;;;;;7.01;87.83;100110.42;111103;1211;108153;-60
2023/02/20 11:20:55;;;;;;;16.00;6.70;;;;;;;7.09;87.11;100107.80;110981;1206;96474;-60
2023/02/20 11:23:42;;;;;;;10.00;5.80;;;;;;;7.18;86.87;100096.11;110907;1211;138754;-60
2023/02/20 11:26:20;;;;;;;14.00;6.60;;;;;;;7.24;85.64;100110.42;110895;1211;111999;-60
2023/02/20 11:29:10;;;;;;;10.80;6.10;;;;;;;7.29;85.59;100097.25;110726;1214;139064;-59
2023/02/20 11:31:37;;;;;;;14.40;7.10;;;;;;;7.37;84.85;100093.20;110596;1212;107798;-59
2023/02/20 11:34:04;;;;;;;14.00;5.40;;;;;;;7.45;84.26;100081.86;110555;1212;138848;-59
2023/02/20 11:36:45;;;;;;;12.70;5.80;;;;;;;7.53;83.76;100063.09;110838;1206;97697;-61
2023/02/20 11:39:29;;;;;;;11.20;5.50;;;;;;;7.65;83.86;100059.59;110897;1209;112621;-59
2023/02/20 11:42:31;;;;;;;12.30;5.40;;;;;;;7.79;83.14;100074.98;110936;1211;98930;-60